This is the latest recevied weather packets stored in our database for station/object N7ZAP. If no packets are shown the sender has not sent any weather packets the latest 10 day(s).
| Time | Temp. | Humidity | Pressure | Rain* | Wind** | Luminosity | Snow |
|---|---|---|---|---|---|---|---|
| 1777740459 | 15° C | 46% | 1024.9 hPa | 0 mm | - | - | - |
| 1777740157 | 15.56° C | 46% | 1024.9 hPa | 0 mm | - | - | - |
| 1777739852 | 15° C | 48% | 1025.2 hPa | 0 mm | - | - | - |
| 1777739549 | 15° C | 47% | 1024.9 hPa | 0 mm | - | - | - |
| 1777739246 | 14.44° C | 49% | 1024.9 hPa | 0 mm | - | - | - |
| 1777738943 | 14.44° C | 51% | 1025 hPa | 0 mm | - | - | - |
| 1777738640 | 14.44° C | 48% | 1024.9 hPa | 0 mm | - | - | - |
| 1777738336 | 14.44° C | 49% | 1024.7 hPa | 0 mm | - | - | - |
| 1777738035 | 13.89° C | 51% | 1024.7 hPa | 0 mm | - | - | - |
| 1777737733 | 13.33° C | 51% | 1024.8 hPa | 0 mm | - | - | - |
| 1777737431 | 13.33° C | 51% | 1025 hPa | 0 mm | - | - | - |
| 1777737128 | 12.78° C | 54% | 1024.8 hPa | 0 mm | - | - | - |
| 1777736824 | 12.78° C | 53% | 1024.9 hPa | 0 mm | - | - | - |
| 1777736200 | 12.78° C | 54% | 1024.9 hPa | 0 mm | - | - | - |
| 1777735897 | 12.78° C | 55% | 1024.9 hPa | 0 mm | - | - | - |
| 1777735595 | 12.78° C | 55% | 1024.8 hPa | 0 mm | - | - | - |
| 1777735292 | 12.22° C | 57% | 1024.9 hPa | 0 mm | - | - | - |
| 1777734990 | 12.22° C | 57% | 1024.8 hPa | 0 mm | - | - | - |
| 1777734687 | 11.67° C | 58% | 1024.7 hPa | 0 mm | - | - | - |
| 1777734384 | 11.11° C | 59% | 1024.7 hPa | 0 mm | - | - | - |
| 1777734080 | 11.11° C | 60% | 1024.7 hPa | 0 mm | - | - | - |
| 1777733777 | 11.11° C | 61% | 1025 hPa | 0 mm | - | - | - |
| 1777733474 | 11.11° C | 60% | 1025.2 hPa | 0 mm | - | - | - |
| 1777733169 | 11.11° C | 61% | 1024.9 hPa | 0 mm | - | - | - |
| 1777732866 | 11.11° C | 62% | 1024.6 hPa | 0 mm | - | - | - |
* Rain latest hour (hover to see other rain measurements)
** Current wind speed in m/s (hover to see current wind gust speed)